sensor_id;sensor_type;location;lat;lon;timestamp;temperature;humidity
27534;DHT22;14973;51.460;7.008;2022-11-21T00:00:04;4.40;99.90
27534;DHT22;14973;51.460;7.008;2022-11-21T00:02:30;4.50;99.90
27534;DHT22;14973;51.460;7.008;2022-11-21T00:04:55;4.30;99.90
27534;DHT22;14973;51.460;7.008;2022-11-21T00:07:21;4.40;99.90
27534;DHT22;14973;51.460;7.008;2022-11-21T00:09:46;4.30;99.90
27534;DHT22;14973;51.460;7.008;2022-11-21T00:12:12;4.30;99.90
27534;DHT22;14973;51.460;7.008;2022-11-21T00:14:40;4.20;99.90
27534;DHT22;14973;51.460;7.008;2022-11-21T00:17:05;4.20;99.90
27534;DHT22;14973;51.460;7.008;2022-11-21T00:19:32;4.10;99.90
27534;DHT22;14973;51.460;7.008;2022-11-21T00:21:57;4.10;99.90
27534;DHT22;14973;51.460;7.008;2022-11-21T00:24:23;4.10;99.90
27534;DHT22;14973;51.460;7.008;2022-11-21T00:26:49;4.10;99.90
27534;DHT22;14973;51.460;7.008;2022-11-21T00:29:14;4.00;99.90
27534;DHT22;14973;51.460;7.008;2022-11-21T00:31:40;4.00;99.90
27534;DHT22;14973;51.460;7.008;2022-11-21T00:34:05;4.00;99.90
27534;DHT22;14973;51.460;7.008;2022-11-21T00:36:31;4.00;99.90
27534;DHT22;14973;51.460;7.008;2022-11-21T00:38:57;4.00;99.90
27534;DHT22;14973;51.460;7.008;2022-11-21T00:41:22;3.90;99.90
27534;DHT22;14973;51.460;7.008;2022-11-21T00:43:48;3.90;99.90
27534;DHT22;14973;51.460;7.008;2022-11-21T00:46:13;4.00;99.90
27534;DHT22;14973;51.460;7.008;2022-11-21T00:48:39;3.80;99.90
27534;DHT22;14973;51.460;7.008;2022-11-21T00:51:04;3.80;99.90
27534;DHT22;14973;51.460;7.008;2022-11-21T00:53:30;3.90;99.90
27534;DHT22;14973;51.460;7.008;2022-11-21T00:55:56;3.90;99.90
27534;DHT22;14973;51.460;7.008;2022-11-21T00:58:22;3.90;99.90
27534;DHT22;14973;51.460;7.008;2022-11-21T01:00:47;3.90;99.90
27534;DHT22;14973;51.460;7.008;2022-11-21T01:03:13;3.80;99.90
27534;DHT22;14973;51.460;7.008;2022-11-21T01:05:38;3.90;99.90
27534;DHT22;14973;51.460;7.008;2022-11-21T01:08:04;3.90;99.90
27534;DHT22;14973;51.460;7.008;2022-11-21T01:10:30;4.00;99.90
27534;DHT22;14973;51.460;7.008;2022-11-21T01:12:55;4.00;99.90
27534;DHT22;14973;51.460;7.008;2022-11-21T01:15:21;3.90;99.90
27534;DHT22;14973;51.460;7.008;2022-11-21T01:17:47;3.90;99.90
27534;DHT22;14973;51.460;7.008;2022-11-21T01:20:13;3.90;99.90
27534;DHT22;14973;51.460;7.008;2022-11-21T01:22:38;3.90;99.90
27534;DHT22;14973;51.460;7.008;2022-11-21T01:25:04;4.00;99.90
27534;DHT22;14973;51.460;7.008;2022-11-21T01:27:30;4.00;99.90
27534;DHT22;14973;51.460;7.008;2022-11-21T01:29:55;4.00;99.90
27534;DHT22;14973;51.460;7.008;2022-11-21T01:32:21;4.00;99.90
27534;DHT22;14973;51.460;7.008;2022-11-21T01:34:47;4.10;99.90
27534;DHT22;14973;51.460;7.008;2022-11-21T01:37:12;4.00;99.90
27534;DHT22;14973;51.460;7.008;2022-11-21T01:39:38;4.00;99.90
27534;DHT22;14973;51.460;7.008;2022-11-21T01:42:03;4.10;99.90
27534;DHT22;14973;51.460;7.008;2022-11-21T01:44:47;4.10;99.90
27534;DHT22;14973;51.460;7.008;2022-11-21T01:47:13;4.10;99.90
27534;DHT22;14973;51.460;7.008;2022-11-21T01:49:40;4.10;99.90
27534;DHT22;14973;51.460;7.008;2022-11-21T01:54:50;4.00;99.90
27534;DHT22;14973;51.460;7.008;2022-11-21T01:57:21;4.00;99.90
27534;DHT22;14973;51.460;7.008;2022-11-21T01:59:52;4.10;99.90
27534;DHT22;14973;51.460;7.008;2022-11-21T02:02:22;4.10;99.90
27534;DHT22;14973;51.460;7.008;2022-11-21T02:04:49;4.10;99.90
27534;DHT22;14973;51.460;7.008;2022-11-21T02:07:17;4.10;99.90
27534;DHT22;14973;51.460;7.008;2022-11-21T02:09:46;4.10;99.90
27534;DHT22;14973;51.460;7.008;2022-11-21T02:12:33;4.10;99.90
27534;DHT22;14973;51.460;7.008;2022-11-21T02:15:02;4.20;99.90
27534;DHT22;14973;51.460;7.008;2022-11-21T02:17:29;4.20;99.90
27534;DHT22;14973;51.460;7.008;2022-11-21T02:20:06;4.20;99.90
27534;DHT22;14973;51.460;7.008;2022-11-21T02:25:16;4.10;99.90
27534;DHT22;14973;51.460;7.008;2022-11-21T02:27:42;4.20;99.90
27534;DHT22;14973;51.460;7.008;2022-11-21T02:30:09;4.10;99.90
27534;DHT22;14973;51.460;7.008;2022-11-21T02:32:38;4.00;99.90
27534;DHT22;14973;51.460;7.008;2022-11-21T02:35:05;4.00;99.90
27534;DHT22;14973;51.460;7.008;2022-11-21T02:37:32;4.00;99.90
27534;DHT22;14973;51.460;7.008;2022-11-21T02:40:01;4.00;99.90
27534;DHT22;14973;51.460;7.008;2022-11-21T02:42:29;4.00;99.90
27534;DHT22;14973;51.460;7.008;2022-11-21T02:47:39;4.00;99.90
27534;DHT22;14973;51.460;7.008;2022-11-21T02:50:14;4.00;99.90
27534;DHT22;14973;51.460;7.008;2022-11-21T02:52:41;4.00;99.90
27534;DHT22;14973;51.460;7.008;2022-11-21T02:55:07;4.00;99.90
27534;DHT22;14973;51.460;7.008;2022-11-21T02:57:33;4.10;99.90
27534;DHT22;14973;51.460;7.008;2022-11-21T02:59:58;4.00;99.90
27534;DHT22;14973;51.460;7.008;2022-11-21T03:02:24;4.00;99.90
27534;DHT22;14973;51.460;7.008;2022-11-21T03:04:50;3.90;99.90
27534;DHT22;14973;51.460;7.008;2022-11-21T03:07:16;3.90;99.90
27534;DHT22;14973;51.460;7.008;2022-11-21T03:09:41;3.90;99.90
27534;DHT22;14973;51.460;7.008;2022-11-21T03:12:08;3.90;99.90
27534;DHT22;14973;51.460;7.008;2022-11-21T03:14:34;4.00;99.90
27534;DHT22;14973;51.460;7.008;2022-11-21T03:17:00;4.00;99.90
27534;DHT22;14973;51.460;7.008;2022-11-21T03:19:26;4.00;99.90
27534;DHT22;14973;51.460;7.008;2022-11-21T03:21:52;4.00;99.90
27534;DHT22;14973;51.460;7.008;2022-11-21T03:24:17;3.90;99.90
27534;DHT22;14973;51.460;7.008;2022-11-21T03:26:43;3.90;99.90
27534;DHT22;14973;51.460;7.008;2022-11-21T03:29:09;4.00;99.90
27534;DHT22;14973;51.460;7.008;2022-11-21T03:31:34;4.10;99.90
27534;DHT22;14973;51.460;7.008;2022-11-21T03:34:00;4.00;99.90
27534;DHT22;14973;51.460;7.008;2022-11-21T03:36:26;4.00;99.90
27534;DHT22;14973;51.460;7.008;2022-11-21T03:38:54;4.10;99.90
27534;DHT22;14973;51.460;7.008;2022-11-21T03:41:20;4.10;99.90
27534;DHT22;14973;51.460;7.008;2022-11-21T03:46:21;4.10;99.90
27534;DHT22;14973;51.460;7.008;2022-11-21T03:48:47;4.10;99.90
27534;DHT22;14973;51.460;7.008;2022-11-21T03:51:12;4.10;99.90
27534;DHT22;14973;51.460;7.008;2022-11-21T03:53:38;4.10;99.90
27534;DHT22;14973;51.460;7.008;2022-11-21T03:56:04;4.10;99.90
27534;DHT22;14973;51.460;7.008;2022-11-21T03:58:29;4.10;99.90
27534;DHT22;14973;51.460;7.008;2022-11-21T04:00:55;4.10;99.90
27534;DHT22;14973;51.460;7.008;2022-11-21T04:03:21;4.00;99.90
27534;DHT22;14973;51.460;7.008;2022-11-21T04:05:47;4.00;99.90
27534;DHT22;14973;51.460;7.008;2022-11-21T04:08:12;4.00;99.90
27534;DHT22;14973;51.460;7.008;2022-11-21T04:10:38;4.10;99.90
27534;DHT22;14973;51.460;7.008;2022-11-21T04:13:03;4.10;99.90
27534;DHT22;14973;51.460;7.008;2022-11-21T04:15:29;4.10;99.90
27534;DHT22;14973;51.460;7.008;2022-11-21T04:17:54;4.10;99.90
27534;DHT22;14973;51.460;7.008;2022-11-21T04:20:20;4.10;99.90
27534;DHT22;14973;51.460;7.008;2022-11-21T04:22:46;4.10;99.90
27534;DHT22;14973;51.460;7.008;2022-11-21T04:25:11;4.10;99.90
27534;DHT22;14973;51.460;7.008;2022-11-21T04:27:38;4.10;99.90
27534;DHT22;14973;51.460;7.008;2022-11-21T04:30:05;4.10;99.90
27534;DHT22;14973;51.460;7.008;2022-11-21T04:32:30;4.10;99.90
27534;DHT22;14973;51.460;7.008;2022-11-21T04:34:56;4.10;99.90
27534;DHT22;14973;51.460;7.008;2022-11-21T04:37:21;4.10;99.90
27534;DHT22;14973;51.460;7.008;2022-11-21T04:39:47;4.10;99.90
27534;DHT22;14973;51.460;7.008;2022-11-21T04:42:12;4.00;99.90
27534;DHT22;14973;51.460;7.008;2022-11-21T04:44:38;4.00;99.90
27534;DHT22;14973;51.460;7.008;2022-11-21T04:47:04;4.10;99.90
27534;DHT22;14973;51.460;7.008;2022-11-21T04:49:29;4.10;99.90
27534;DHT22;14973;51.460;7.008;2022-11-21T04:51:55;4.10;99.90
27534;DHT22;14973;51.460;7.008;2022-11-21T04:54:20;4.10;99.90
27534;DHT22;14973;51.460;7.008;2022-11-21T04:56:46;4.10;99.90
27534;DHT22;14973;51.460;7.008;2022-11-21T04:59:11;4.10;99.90
27534;DHT22;14973;51.460;7.008;2022-11-21T05:01:37;4.10;99.90
27534;DHT22;14973;51.460;7.008;2022-11-21T05:04:03;4.20;99.90
27534;DHT22;14973;51.460;7.008;2022-11-21T05:06:29;4.20;99.90
27534;DHT22;14973;51.460;7.008;2022-11-21T05:08:54;4.30;99.90
27534;DHT22;14973;51.460;7.008;2022-11-21T05:11:20;4.20;99.90
27534;DHT22;14973;51.460;7.008;2022-11-21T05:14:04;4.20;99.90
27534;DHT22;14973;51.460;7.008;2022-11-21T05:16:32;4.20;99.90
27534;DHT22;14973;51.460;7.008;2022-11-21T05:18:57;4.30;99.90
27534;DHT22;14973;51.460;7.008;2022-11-21T05:21:23;4.30;99.90
27534;DHT22;14973;51.460;7.008;2022-11-21T05:23:49;4.20;99.90
27534;DHT22;14973;51.460;7.008;2022-11-21T05:26:14;4.20;99.90
27534;DHT22;14973;51.460;7.008;2022-11-21T05:28:40;4.20;99.90
27534;DHT22;14973;51.460;7.008;2022-11-21T05:31:05;4.20;99.90
27534;DHT22;14973;51.460;7.008;2022-11-21T05:33:31;4.20;99.90
27534;DHT22;14973;51.460;7.008;2022-11-21T05:35:57;4.20;99.90
27534;DHT22;14973;51.460;7.008;2022-11-21T05:38:22;4.30;99.90
27534;DHT22;14973;51.460;7.008;2022-11-21T05:40:50;4.30;99.90
27534;DHT22;14973;51.460;7.008;2022-11-21T05:43:15;4.30;99.90
27534;DHT22;14973;51.460;7.008;2022-11-21T05:46:00;4.30;99.90
27534;DHT22;14973;51.460;7.008;2022-11-21T05:48:25;4.30;99.90
27534;DHT22;14973;51.460;7.008;2022-11-21T05:50:51;4.30;99.90
27534;DHT22;14973;51.460;7.008;2022-11-21T05:53:17;4.40;99.90
27534;DHT22;14973;51.460;7.008;2022-11-21T05:55:43;4.30;99.90
27534;DHT22;14973;51.460;7.008;2022-11-21T05:58:08;4.30;99.90
27534;DHT22;14973;51.460;7.008;2022-11-21T06:00:35;4.30;99.90
27534;DHT22;14973;51.460;7.008;2022-11-21T06:03:01;4.30;99.90
27534;DHT22;14973;51.460;7.008;2022-11-21T06:05:45;4.30;99.90
27534;DHT22;14973;51.460;7.008;2022-11-21T06:08:10;4.30;99.90
27534;DHT22;14973;51.460;7.008;2022-11-21T06:10:36;4.30;99.90
27534;DHT22;14973;51.460;7.008;2022-11-21T06:13:02;4.30;99.90
27534;DHT22;14973;51.460;7.008;2022-11-21T06:15:28;4.30;99.90
27534;DHT22;14973;51.460;7.008;2022-11-21T06:17:53;4.40;99.90
27534;DHT22;14973;51.460;7.008;2022-11-21T06:20:19;4.40;99.90
27534;DHT22;14973;51.460;7.008;2022-11-21T06:22:45;4.40;99.90
27534;DHT22;14973;51.460;7.008;2022-11-21T06:25:10;4.40;99.90
27534;DHT22;14973;51.460;7.008;2022-11-21T06:27:36;4.40;99.90
27534;DHT22;14973;51.460;7.008;2022-11-21T06:30:02;4.40;99.90
27534;DHT22;14973;51.460;7.008;2022-11-21T06:32:27;4.40;99.90
27534;DHT22;14973;51.460;7.008;2022-11-21T06:34:53;4.50;99.90
27534;DHT22;14973;51.460;7.008;2022-11-21T06:37:18;4.60;99.90
27534;DHT22;14973;51.460;7.008;2022-11-21T06:39:44;4.60;99.90
27534;DHT22;14973;51.460;7.008;2022-11-21T06:42:09;4.50;99.90
27534;DHT22;14973;51.460;7.008;2022-11-21T06:44:35;4.50;99.90
27534;DHT22;14973;51.460;7.008;2022-11-21T06:47:00;4.50;99.90
27534;DHT22;14973;51.460;7.008;2022-11-21T06:49:26;4.50;99.90
27534;DHT22;14973;51.460;7.008;2022-11-21T06:51:52;4.50;99.90
27534;DHT22;14973;51.460;7.008;2022-11-21T06:54:17;4.50;99.90
27534;DHT22;14973;51.460;7.008;2022-11-21T06:56:43;4.50;99.90
27534;DHT22;14973;51.460;7.008;2022-11-21T06:59:09;4.60;99.90
27534;DHT22;14973;51.460;7.008;2022-11-21T07:01:34;4.60;99.90
27534;DHT22;14973;51.460;7.008;2022-11-21T07:04:00;4.60;99.90
27534;DHT22;14973;51.460;7.008;2022-11-21T07:06:26;4.70;99.90
27534;DHT22;14973;51.460;7.008;2022-11-21T07:08:53;4.70;99.90
27534;DHT22;14973;51.460;7.008;2022-11-21T07:11:19;4.70;99.90
27534;DHT22;14973;51.460;7.008;2022-11-21T07:13:44;4.70;99.90
27534;DHT22;14973;51.460;7.008;2022-11-21T07:16:11;4.70;99.90
27534;DHT22;14973;51.460;7.008;2022-11-21T07:18:39;4.70;99.90
27534;DHT22;14973;51.460;7.008;2022-11-21T07:21:05;4.70;99.90
27534;DHT22;14973;51.460;7.008;2022-11-21T07:23:32;4.70;99.90
27534;DHT22;14973;51.460;7.008;2022-11-21T07:26:06;4.70;99.90
27534;DHT22;14973;51.460;7.008;2022-11-21T07:28:33;4.70;99.90
27534;DHT22;14973;51.460;7.008;2022-11-21T07:30:59;4.70;99.90
27534;DHT22;14973;51.460;7.008;2022-11-21T07:33:26;4.80;99.90
27534;DHT22;14973;51.460;7.008;2022-11-21T07:35:54;4.80;99.90
27534;DHT22;14973;51.460;7.008;2022-11-21T07:38:20;4.80;99.90
27534;DHT22;14973;51.460;7.008;2022-11-21T07:40:46;4.90;99.90
27534;DHT22;14973;51.460;7.008;2022-11-21T07:43:12;4.90;99.90
27534;DHT22;14973;51.460;7.008;2022-11-21T07:45:37;5.00;99.90
27534;DHT22;14973;51.460;7.008;2022-11-21T07:48:05;5.10;99.90
27534;DHT22;14973;51.460;7.008;2022-11-21T07:50:34;5.10;99.90
27534;DHT22;14973;51.460;7.008;2022-11-21T07:53:03;5.10;99.90
27534;DHT22;14973;51.460;7.008;2022-11-21T07:55:30;5.10;99.90
27534;DHT22;14973;51.460;7.008;2022-11-21T07:58:00;5.30;99.90
27534;DHT22;14973;51.460;7.008;2022-11-21T08:00:26;5.30;99.90
27534;DHT22;14973;51.460;7.008;2022-11-21T08:02:52;5.40;99.90
27534;DHT22;14973;51.460;7.008;2022-11-21T08:05:18;5.50;99.90
27534;DHT22;14973;51.460;7.008;2022-11-21T08:07:44;5.40;99.90
27534;DHT22;14973;51.460;7.008;2022-11-21T08:10:10;5.40;99.90
27534;DHT22;14973;51.460;7.008;2022-11-21T08:12:36;5.40;99.90
27534;DHT22;14973;51.460;7.008;2022-11-21T08:15:02;5.50;99.90
27534;DHT22;14973;51.460;7.008;2022-11-21T08:17:29;5.50;99.90
27534;DHT22;14973;51.460;7.008;2022-11-21T08:19:55;5.50;99.90
27534;DHT22;14973;51.460;7.008;2022-11-21T08:22:23;5.40;99.90
27534;DHT22;14973;51.460;7.008;2022-11-21T08:24:49;5.30;99.90
27534;DHT22;14973;51.460;7.008;2022-11-21T08:27:14;5.40;99.90
27534;DHT22;14973;51.460;7.008;2022-11-21T08:29:45;5.40;99.90
27534;DHT22;14973;51.460;7.008;2022-11-21T08:32:11;5.40;99.90
27534;DHT22;14973;51.460;7.008;2022-11-21T08:34:36;5.50;99.90
27534;DHT22;14973;51.460;7.008;2022-11-21T08:37:02;5.50;99.90
27534;DHT22;14973;51.460;7.008;2022-11-21T08:39:28;5.50;99.90
27534;DHT22;14973;51.460;7.008;2022-11-21T08:41:56;5.50;99.90
27534;DHT22;14973;51.460;7.008;2022-11-21T08:44:31;5.40;99.90
27534;DHT22;14973;51.460;7.008;2022-11-21T08:46:57;5.40;99.90
27534;DHT22;14973;51.460;7.008;2022-11-21T08:49:23;5.40;99.90
27534;DHT22;14973;51.460;7.008;2022-11-21T08:51:49;5.40;99.90
27534;DHT22;14973;51.460;7.008;2022-11-21T08:54:20;5.50;99.90
27534;DHT22;14973;51.460;7.008;2022-11-21T08:56:47;5.60;99.90
27534;DHT22;14973;51.460;7.008;2022-11-21T08:59:13;5.60;99.90
27534;DHT22;14973;51.460;7.008;2022-11-21T09:01:38;5.70;99.90
27534;DHT22;14973;51.460;7.008;2022-11-21T09:04:04;5.70;99.90
27534;DHT22;14973;51.460;7.008;2022-11-21T09:06:31;5.70;99.90
27534;DHT22;14973;51.460;7.008;2022-11-21T09:08:57;5.80;99.90
27534;DHT22;14973;51.460;7.008;2022-11-21T09:11:23;5.90;99.90
27534;DHT22;14973;51.460;7.008;2022-11-21T09:13:52;5.90;99.90
27534;DHT22;14973;51.460;7.008;2022-11-21T09:16:37;6.10;99.90
27534;DHT22;14973;51.460;7.008;2022-11-21T09:19:21;6.10;99.90
27534;DHT22;14973;51.460;7.008;2022-11-21T09:21:48;6.10;99.90
27534;DHT22;14973;51.460;7.008;2022-11-21T09:24:15;6.30;99.90
27534;DHT22;14973;51.460;7.008;2022-11-21T09:26:40;6.30;99.90
27534;DHT22;14973;51.460;7.008;2022-11-21T09:29:06;6.50;99.90
27534;DHT22;14973;51.460;7.008;2022-11-21T09:31:38;6.50;99.90
27534;DHT22;14973;51.460;7.008;2022-11-21T09:34:04;6.60;99.90
27534;DHT22;14973;51.460;7.008;2022-11-21T09:36:30;6.60;99.90
27534;DHT22;14973;51.460;7.008;2022-11-21T09:38:56;6.80;99.90
27534;DHT22;14973;51.460;7.008;2022-11-21T09:47:41;6.80;99.90
27534;DHT22;14973;51.460;7.008;2022-11-21T09:52:48;6.90;99.90
27534;DHT22;14973;51.460;7.008;2022-11-21T09:58:04;7.20;99.90
27534;DHT22;14973;51.460;7.008;2022-11-21T10:00:31;7.40;99.90
27534;DHT22;14973;51.460;7.008;2022-11-21T10:02:58;7.50;99.90
27534;DHT22;14973;51.460;7.008;2022-11-21T10:05:47;7.70;99.90
27534;DHT22;14973;51.460;7.008;2022-11-21T10:08:42;7.70;99.90
27534;DHT22;14973;51.460;7.008;2022-11-21T10:13:58;7.80;99.90
27534;DHT22;14973;51.460;7.008;2022-11-21T10:19:24;7.90;99.90
27534;DHT22;14973;51.460;7.008;2022-11-21T10:24:47;8.10;99.90
27534;DHT22;14973;51.460;7.008;2022-11-21T10:27:26;8.10;99.90
27534;DHT22;14973;51.460;7.008;2022-11-21T10:30:04;8.30;99.90
27534;DHT22;14973;51.460;7.008;2022-11-21T10:32:39;8.50;99.90
27534;DHT22;14973;51.460;7.008;2022-11-21T10:35:20;8.50;99.90
27534;DHT22;14973;51.460;7.008;2022-11-21T10:37:59;8.50;99.90
27534;DHT22;14973;51.460;7.008;2022-11-21T10:40:34;8.50;99.90
27534;DHT22;14973;51.460;7.008;2022-11-21T10:45:57;8.40;99.90
27534;DHT22;14973;51.460;7.008;2022-11-21T10:48:23;8.50;99.90
27534;DHT22;14973;51.460;7.008;2022-11-21T10:51:12;8.70;99.90
27534;DHT22;14973;51.460;7.008;2022-11-21T10:53:39;8.80;99.90
27534;DHT22;14973;51.460;7.008;2022-11-21T10:56:25;9.00;99.90
27534;DHT22;14973;51.460;7.008;2022-11-21T10:58:56;9.30;99.90
27534;DHT22;14973;51.460;7.008;2022-11-21T11:01:34;9.50;99.90
27534;DHT22;14973;51.460;7.008;2022-11-21T11:06:40;9.30;96.90
27534;DHT22;14973;51.460;7.008;2022-11-21T11:09:20;9.10;99.90
27534;DHT22;14973;51.460;7.008;2022-11-21T11:11:46;8.90;99.90
27534;DHT22;14973;51.460;7.008;2022-11-21T11:14:13;8.80;99.90
27534;DHT22;14973;51.460;7.008;2022-11-21T11:16:45;8.90;99.90
27534;DHT22;14973;51.460;7.008;2022-11-21T11:19:16;9.00;99.90
27534;DHT22;14973;51.460;7.008;2022-11-21T11:21:45;8.90;99.90
27534;DHT22;14973;51.460;7.008;2022-11-21T11:29:16;9.10;99.90
27534;DHT22;14973;51.460;7.008;2022-11-21T11:31:56;9.30;99.90
27534;DHT22;14973;51.460;7.008;2022-11-21T11:34:40;9.30;99.60
27534;DHT22;14973;51.460;7.008;2022-11-21T11:37:19;9.30;99.90
27534;DHT22;14973;51.460;7.008;2022-11-21T11:39:58;9.30;99.90
27534;DHT22;14973;51.460;7.008;2022-11-21T11:48:36;9.70;92.90
27534;DHT22;14973;51.460;7.008;2022-11-21T11:51:18;9.80;91.00
27534;DHT22;14973;51.460;7.008;2022-11-21T11:53:49;9.60;91.00
27534;DHT22;14973;51.460;7.008;2022-11-21T11:56:21;9.50;94.60
27534;DHT22;14973;51.460;7.008;2022-11-21T12:01:46;9.80;96.50
27534;DHT22;14973;51.460;7.008;2022-11-21T12:04:18;9.90;76.10
27534;DHT22;14973;51.460;7.008;2022-11-21T12:07:08;9.80;76.40
27534;DHT22;14973;51.460;7.008;2022-11-21T12:12:35;9.80;80.80
27534;DHT22;14973;51.460;7.008;2022-11-21T12:15:24;9.60;81.10
27534;DHT22;14973;51.460;7.008;2022-11-21T12:20:58;9.30;88.70
27534;DHT22;14973;51.460;7.008;2022-11-21T12:23:50;9.20;92.70
27534;DHT22;14973;51.460;7.008;2022-11-21T12:45:51;9.20;93.60
27534;DHT22;14973;51.460;7.008;2022-11-21T12:49:10;9.30;91.40
27534;DHT22;14973;51.460;7.008;2022-11-21T12:52:02;9.40;94.20
27534;DHT22;14973;51.460;7.008;2022-11-21T13:00:59;9.80;79.40
27534;DHT22;14973;51.460;7.008;2022-11-21T13:05:52;9.60;86.70
27534;DHT22;14973;51.460;7.008;2022-11-21T13:08:28;9.50;91.10
27534;DHT22;14973;51.460;7.008;2022-11-21T13:11:10;9.30;93.10
27534;DHT22;14973;51.460;7.008;2022-11-21T13:14:13;9.10;93.10
27534;DHT22;14973;51.460;7.008;2022-11-21T13:16:46;8.90;95.20
27534;DHT22;14973;51.460;7.008;2022-11-21T13:21:48;8.70;99.90
27534;DHT22;14973;51.460;7.008;2022-11-21T13:24:54;8.70;99.90
27534;DHT22;14973;51.460;7.008;2022-11-21T13:27:33;8.70;99.90
27534;DHT22;14973;51.460;7.008;2022-11-21T14:02:50;8.60;99.90
27534;DHT22;14973;51.460;7.008;2022-11-21T14:05:56;8.60;99.90
27534;DHT22;14973;51.460;7.008;2022-11-21T14:08:25;8.60;99.90
27534;DHT22;14973;51.460;7.008;2022-11-21T14:10:54;8.60;99.90
27534;DHT22;14973;51.460;7.008;2022-11-21T14:13:35;8.60;99.90
27534;DHT22;14973;51.460;7.008;2022-11-21T14:16:27;8.60;99.90
27534;DHT22;14973;51.460;7.008;2022-11-21T14:18:56;8.60;99.90
27534;DHT22;14973;51.460;7.008;2022-11-21T14:21:28;8.50;99.90
27534;DHT22;14973;51.460;7.008;2022-11-21T14:23:57;8.50;99.90
27534;DHT22;14973;51.460;7.008;2022-11-21T14:26:33;8.50;99.90
27534;DHT22;14973;51.460;7.008;2022-11-21T14:29:27;8.40;99.90
27534;DHT22;14973;51.460;7.008;2022-11-21T14:31:53;8.40;99.90
27534;DHT22;14973;51.460;7.008;2022-11-21T14:34:27;8.40;99.90
27534;DHT22;14973;51.460;7.008;2022-11-21T14:36:56;8.30;99.90
27534;DHT22;14973;51.460;7.008;2022-11-21T14:39:28;8.30;99.90
27534;DHT22;14973;51.460;7.008;2022-11-21T14:41:57;8.30;99.90
27534;DHT22;14973;51.460;7.008;2022-11-21T14:44:25;8.20;99.90
27534;DHT22;14973;51.460;7.008;2022-11-21T14:47:10;8.10;99.90
27534;DHT22;14973;51.460;7.008;2022-11-21T14:49:37;8.00;99.90
27534;DHT22;14973;51.460;7.008;2022-11-21T14:52:27;8.00;99.90
27534;DHT22;14973;51.460;7.008;2022-11-21T14:54:57;7.90;99.90
27534;DHT22;14973;51.460;7.008;2022-11-21T14:57:25;7.90;99.90
27534;DHT22;14973;51.460;7.008;2022-11-21T14:59:52;8.00;99.90
27534;DHT22;14973;51.460;7.008;2022-11-21T15:02:24;7.90;99.90
27534;DHT22;14973;51.460;7.008;2022-11-21T15:04:52;7.90;99.90
27534;DHT22;14973;51.460;7.008;2022-11-21T15:07:24;7.80;99.90
27534;DHT22;14973;51.460;7.008;2022-11-21T15:09:51;7.90;99.90
27534;DHT22;14973;51.460;7.008;2022-11-21T15:12:26;7.80;99.90
27534;DHT22;14973;51.460;7.008;2022-11-21T15:15:01;7.60;99.90
27534;DHT22;14973;51.460;7.008;2022-11-21T15:17:28;7.50;99.90
27534;DHT22;14973;51.460;7.008;2022-11-21T15:20:20;7.50;99.90
27534;DHT22;14973;51.460;7.008;2022-11-21T15:22:48;7.40;99.90
27534;DHT22;14973;51.460;7.008;2022-11-21T15:25:17;7.30;99.90
27534;DHT22;14973;51.460;7.008;2022-11-21T15:27:51;7.20;99.90
27534;DHT22;14973;51.460;7.008;2022-11-21T15:30:34;7.20;99.90
27534;DHT22;14973;51.460;7.008;2022-11-21T15:35:57;7.10;99.90
27534;DHT22;14973;51.460;7.008;2022-11-21T15:38:48;7.10;99.90
27534;DHT22;14973;51.460;7.008;2022-11-21T15:46:35;7.10;99.90
27534;DHT22;14973;51.460;7.008;2022-11-21T15:49:08;7.10;99.90
27534;DHT22;14973;51.460;7.008;2022-11-21T15:51:42;7.00;99.90
27534;DHT22;14973;51.460;7.008;2022-11-21T15:54:17;7.00;99.90
27534;DHT22;14973;51.460;7.008;2022-11-21T15:56:43;7.00;99.90
27534;DHT22;14973;51.460;7.008;2022-11-21T15:59:09;7.00;99.90
27534;DHT22;14973;51.460;7.008;2022-11-21T16:01:36;7.00;99.90
27534;DHT22;14973;51.460;7.008;2022-11-21T16:04:04;7.00;99.90
27534;DHT22;14973;51.460;7.008;2022-11-21T16:06:31;6.90;99.90
27534;DHT22;14973;51.460;7.008;2022-11-21T16:08:57;6.80;99.90
27534;DHT22;14973;51.460;7.008;2022-11-21T16:11:28;6.80;99.90
27534;DHT22;14973;51.460;7.008;2022-11-21T16:13:56;6.80;99.90
27534;DHT22;14973;51.460;7.008;2022-11-21T16:16:25;6.80;99.90
27534;DHT22;14973;51.460;7.008;2022-11-21T16:18:51;6.80;99.90
27534;DHT22;14973;51.460;7.008;2022-11-21T16:21:17;6.80;99.90
27534;DHT22;14973;51.460;7.008;2022-11-21T16:23:43;6.80;99.90
27534;DHT22;14973;51.460;7.008;2022-11-21T16:26:10;6.90;99.90
27534;DHT22;14973;51.460;7.008;2022-11-21T16:28:37;6.90;99.90
27534;DHT22;14973;51.460;7.008;2022-11-21T16:31:03;6.80;99.90
27534;DHT22;14973;51.460;7.008;2022-11-21T16:33:30;6.80;99.90
27534;DHT22;14973;51.460;7.008;2022-11-21T16:35:56;6.80;99.90
27534;DHT22;14973;51.460;7.008;2022-11-21T16:38:26;6.90;99.90
27534;DHT22;14973;51.460;7.008;2022-11-21T16:41:00;7.00;99.90
27534;DHT22;14973;51.460;7.008;2022-11-21T16:43:27;7.00;99.90
27534;DHT22;14973;51.460;7.008;2022-11-21T16:45:54;7.00;99.90
27534;DHT22;14973;51.460;7.008;2022-11-21T16:48:21;6.90;99.90
27534;DHT22;14973;51.460;7.008;2022-11-21T16:50:47;7.00;99.90
27534;DHT22;14973;51.460;7.008;2022-11-21T16:53:15;7.00;99.90
27534;DHT22;14973;51.460;7.008;2022-11-21T16:55:41;7.10;99.90
27534;DHT22;14973;51.460;7.008;2022-11-21T16:58:07;7.10;99.90
27534;DHT22;14973;51.460;7.008;2022-11-21T17:00:33;7.10;99.90
27534;DHT22;14973;51.460;7.008;2022-11-21T17:02:59;7.10;99.90
27534;DHT22;14973;51.460;7.008;2022-11-21T17:05:25;7.10;99.90
27534;DHT22;14973;51.460;7.008;2022-11-21T17:07:51;7.20;99.00
27534;DHT22;14973;51.460;7.008;2022-11-21T17:10:17;7.10;98.40
27534;DHT22;14973;51.460;7.008;2022-11-21T17:12:43;7.10;98.90
27534;DHT22;14973;51.460;7.008;2022-11-21T17:15:12;7.10;96.80
27534;DHT22;14973;51.460;7.008;2022-11-21T17:17:38;7.10;97.40
27534;DHT22;14973;51.460;7.008;2022-11-21T17:20:05;7.10;96.70
27534;DHT22;14973;51.460;7.008;2022-11-21T17:22:32;7.10;97.80
27534;DHT22;14973;51.460;7.008;2022-11-21T17:24:57;7.10;96.20
27534;DHT22;14973;51.460;7.008;2022-11-21T17:27:23;7.10;97.50
27534;DHT22;14973;51.460;7.008;2022-11-21T17:29:50;7.20;95.60
27534;DHT22;14973;51.460;7.008;2022-11-21T17:32:16;7.10;96.20
27534;DHT22;14973;51.460;7.008;2022-11-21T17:34:42;7.20;97.20
27534;DHT22;14973;51.460;7.008;2022-11-21T17:37:08;7.20;94.40
27534;DHT22;14973;51.460;7.008;2022-11-21T17:39:35;7.20;94.00
27534;DHT22;14973;51.460;7.008;2022-11-21T17:42:01;7.10;94.30
27534;DHT22;14973;51.460;7.008;2022-11-21T17:44:27;7.20;95.50
27534;DHT22;14973;51.460;7.008;2022-11-21T17:46:53;7.20;95.50
27534;DHT22;14973;51.460;7.008;2022-11-21T17:49:19;7.10;95.30
27534;DHT22;14973;51.460;7.008;2022-11-21T17:51:46;7.10;95.90
27534;DHT22;14973;51.460;7.008;2022-11-21T17:54:11;7.10;94.90
27534;DHT22;14973;51.460;7.008;2022-11-21T17:56:38;7.10;96.30
27534;DHT22;14973;51.460;7.008;2022-11-21T17:59:05;7.20;94.80
27534;DHT22;14973;51.460;7.008;2022-11-21T18:01:32;7.10;96.00
27534;DHT22;14973;51.460;7.008;2022-11-21T18:04:02;7.10;96.80